Turbat Weather



Turbat's Current Weather

Temprature 39.31o clear sky

clear sky

Rain: 0 %

Min Temprature39.31o
Max Temprature39.31o
Humidity18
Wind Speed5.42 m/h
Sun Rise06:05:53
Sun Set19:22:45
Current Time: 08-May-2021 15:06:18
Lat/Lon: 26.0023, 63.044




Turbat's Geo Location



Turbat's Weather Forecast

Time Overall Temp Min Temp Max Temp Humidity Wind Speed Rain
08-May-2021 (Sat)
17:00:00 clear sky 38.930 38.930 39.280 18 6.54 m/h 0 %
20:00:00 light rain 35.450 33.800 35.450 27 3.43 m/h 15 %
23:00:00 scattered clouds 31.510 31.510 31.510 41 5.01 m/h 0 %
09-May-2021 (Sun)
02:00:00 scattered clouds 28.860 28.860 28.860 55 4.69 m/h 0 %
05:00:00 scattered clouds 27.800 27.800 27.800 63 1.53 m/h 0 %
08:00:00 clear sky 29.130 29.130 29.130 57 1.19 m/h 0 %
11:00:00 clear sky 34.530 34.530 34.530 35 2.78 m/h 0 %
14:00:00 clear sky 39.050 39.050 39.050 22 4.72 m/h 0 %
17:00:00 clear sky 39.170 39.170 39.170 22 7.85 m/h 0 %
20:00:00 light rain 33.370 33.370 33.370 30 1.43 m/h 166 %
23:00:00 few clouds 31.650 31.650 31.650 41 4.88 m/h 0 %
10-May-2021 (Mon)
02:00:00 few clouds 29.760 29.760 29.760 50 4.36 m/h 0 %
05:00:00 clear sky 28.250 28.250 28.250 56 1.76 m/h 0 %
08:00:00 few clouds 29.000 29.000 29.000 53 2.46 m/h 0 %
11:00:00 clear sky 34.170 34.170 34.170 34 4.02 m/h 0 %
14:00:00 clear sky 39.010 39.010 39.010 19 5.64 m/h 0 %
17:00:00 clear sky 40.310 40.310 40.310 11 7.83 m/h 0 %
20:00:00 clear sky 35.510 35.510 35.510 17 10.16 m/h 0 %
23:00:00 clear sky 31.650 31.650 31.650 25 4.39 m/h 0 %
11-May-2021 (Tue)
02:00:00 clear sky 29.400 29.400 29.400 29 0.55 m/h 0 %
05:00:00 clear sky 27.550 27.550 27.550 34 2.29 m/h 0 %
08:00:00 clear sky 29.000 29.000 29.000 29 1.93 m/h 0 %
11:00:00 clear sky 34.980 34.980 34.980 18 1.23 m/h 0 %
14:00:00 clear sky 39.700 39.700 39.700 14 3.74 m/h 0 %
17:00:00 clear sky 40.950 40.950 40.950 12 3.9 m/h 0 %
20:00:00 broken clouds 35.790 35.790 35.790 25 8.21 m/h 0 %
23:00:00 scattered clouds 33.540 33.540 33.540 25 3.12 m/h 0 %
12-May-2021 (Wed)
02:00:00 clear sky 31.520 31.520 31.520 23 1.63 m/h 0 %
05:00:00 clear sky 30.750 30.750 30.750 16 4.92 m/h 0 %
08:00:00 clear sky 33.010 33.010 33.010 12 7.23 m/h 0 %
11:00:00 clear sky 37.950 37.950 37.950 8 5.48 m/h 0 %
14:00:00 clear sky 40.420 40.420 40.420 7 5.09 m/h 0 %
17:00:00 clear sky 41.650 41.650 41.650 4 4.14 m/h 0 %
20:00:00 clear sky 35.720 35.720 35.720 13 2.02 m/h 0 %
23:00:00 clear sky 31.990 31.990 31.990 37 3.31 m/h 0 %
13-May-2021 (Thu)
02:00:00 clear sky 31.340 31.340 31.340 18 2.51 m/h 0 %
05:00:00 clear sky 30.100 30.100 30.100 12 5.45 m/h 0 %
08:00:00 clear sky 32.800 32.800 32.800 9 5.61 m/h 0 %
11:00:00 clear sky 38.710 38.710 38.710 6 6.68 m/h 0 %
14:00:00 clear sky 41.000 41.000 41.000 5 3.97 m/h 0 %

Famous Cities (60)